Time;durP1;ratioP1;P1;durP2;ratioP2;P2;SDS_P1;SDS_P2;PMS_P1;PMS_P2;Temp;Humidity;BMP_temperature;BMP_pressure;BME280_temperature;BME280_humidity;BME280_pressure;Samples;Min_cycle;Max_cycle;Signal;HPM_P1;HPM_P2
2024/03/05 00:01:09;;;;;;;;;51.00;41.00;;;;;13.85;100.00;97957.81;5931572;29;96263;-52
2024/03/05 00:04:13;;;;;;;;;50.00;40.00;;;;;13.88;100.00;97962.69;5931780;29;96773;-52
2024/03/05 00:07:16;;;;;;;;;50.00;41.00;;;;;13.91;100.00;97964.88;5932105;29;96446;-53
2024/03/05 00:10:21;;;;;;;;;53.80;42.40;;;;;13.83;100.00;97955.34;5931920;29;96386;-52
2024/03/05 00:13:25;;;;;;;;;50.00;41.00;;;;;13.76;100.00;97954.78;5931675;29;96477;-52
2024/03/05 00:16:28;;;;;;;;;49.60;40.00;;;;;13.77;100.00;97950.19;5936369;29;96390;-56
2024/03/05 00:19:31;;;;;;;;;49.75;39.75;;;;;13.82;100.00;97956.47;5971456;29;96667;-57
2024/03/05 00:22:34;;;;;;;;;53.20;41.80;;;;;13.88;100.00;97957.25;5972107;29;96380;-57
2024/03/05 00:25:39;;;;;;;;;50.80;41.00;;;;;13.89;100.00;97958.91;5955723;29;97529;-57
2024/03/05 00:28:42;;;;;;;;;50.00;39.00;;;;;13.91;100.00;97964.88;5972754;29;96827;-57
2024/03/05 00:31:45;;;;;;;;;46.00;37.00;;;;;13.91;100.00;97969.47;5972084;29;96430;-57
2024/03/05 00:34:48;;;;;;;;;45.40;35.20;;;;;13.84;100.00;97973.25;5973169;29;96308;-56
2024/03/05 00:37:51;;;;;;;;;48.00;38.00;;;;;13.84;100.00;97967.00;5973859;29;96401;-57
2024/03/05 00:40:56;;;;;;;;;44.50;35.00;;;;;13.85;100.00;97963.22;5973506;29;96390;-56
2024/03/05 00:43:59;;;;;;;;;44.80;36.00;;;;;13.89;100.00;97969.72;5973932;29;97241;-56
2024/03/05 00:47:03;;;;;;;;;44.20;34.40;;;;;13.89;100.00;97967.84;5973103;29;96293;-57
2024/03/05 00:50:07;;;;;;;;;41.40;34.40;;;;;13.90;100.00;97963.25;5959037;29;96849;-57
2024/03/05 00:53:10;;;;;;;;;42.75;34.75;;;;;13.91;100.00;97969.47;5950220;29;96340;-57
2024/03/05 00:56:14;;;;;;;;;41.00;35.00;;;;;13.92;100.00;97961.09;5951076;29;96539;-56
2024/03/05 00:59:18;;;;;;;;;39.20;33.60;;;;;13.93;100.00;97964.63;5972118;29;96398;-57
2024/03/05 01:02:21;;;;;;;;;45.00;35.75;;;;;13.94;100.00;97961.63;5972227;29;96436;-56
2024/03/05 01:05:25;;;;;;;;;45.60;36.60;;;;;13.93;100.00;97954.56;5972914;29;96552;-57
2024/03/05 01:08:30;;;;;;;;;43.75;35.25;;;;;13.89;100.00;97954.28;5973052;29;98024;-57
2024/03/05 01:11:35;;;;;;;;;46.40;37.00;;;;;13.85;100.00;97960.50;5972937;29;96788;-57
2024/03/05 01:14:38;;;;;;;;;46.50;38.00;;;;;13.71;100.00;97943.13;5971366;29;96409;-56
2024/03/05 01:17:41;;;;;;;;;47.00;38.00;;;;;13.71;100.00;97964.78;5949672;29;96222;-56
2024/03/05 01:20:44;;;;;;;;;47.00;37.00;;;;;13.66;100.00;97962.06;5949975;29;96500;-56
2024/03/05 01:23:48;;;;;;;;;49.60;38.00;;;;;13.66;100.00;97971.00;5949642;29;96399;-57
2024/03/05 01:26:53;;;;;;;;;48.60;36.60;;;;;13.70;100.00;97977.50;5955357;29;97389;-52
2024/03/05 01:29:59;;;;;;;;;45.80;36.00;;;;;13.72;100.00;97978.09;5953659;29;96336;-52
2024/03/05 01:33:05;;;;;;;;;47.80;36.00;;;;;13.73;100.00;97985.09;5954393;29;96562;-52
2024/03/05 01:36:10;;;;;;;;;45.00;36.00;;;;;13.77;100.00;97988.13;5953468;29;96417;-52
2024/03/05 01:39:13;;;;;;;;;45.75;36.75;;;;;13.73;100.00;97990.53;5953824;29;96479;-52
2024/03/05 01:42:18;;;;;;;;;51.20;40.00;;;;;13.74;100.00;97989.44;5953597;29;96382;-53
2024/03/05 01:45:21;;;;;;;;;49.00;38.00;;;;;13.78;100.00;97993.25;5952757;29;96344;-53
2024/03/05 01:48:24;;;;;;;;;48.40;37.00;;;;;13.81;100.00;97987.31;5936807;29;96994;-52
2024/03/05 01:51:27;;;;;;;;;47.00;37.00;;;;;13.74;100.00;97985.91;5953660;29;96348;-52
2024/03/05 01:54:30;;;;;;;;;49.00;38.00;;;;;13.70;100.00;97979.41;5952515;29;96369;-52
2024/03/05 01:57:35;;;;;;;;;44.20;35.00;;;;;13.87;100.00;97999.00;5953263;29;96489;-52
2024/03/05 02:00:39;;;;;;;;;47.00;36.00;;;;;13.87;100.00;97997.13;5936488;29;96374;-54
2024/03/05 02:03:42;;;;;;;;;47.80;36.00;;;;;13.86;100.00;97989.25;5977026;23;96491;-57
2024/03/05 02:06:47;;;;;;;;;48.80;38.80;;;;;13.87;100.00;97994.41;5996034;29;96351;-57
2024/03/05 02:09:51;;;;;;;;;49.00;39.00;;;;;13.86;100.00;97991.94;5996439;29;96407;-58
2024/03/05 02:12:55;;;;;;;;;45.00;36.67;;;;;13.86;100.00;97987.34;5996640;29;96377;-58
2024/03/05 02:15:59;;;;;;;;;50.00;38.00;;;;;13.88;100.00;97995.19;5996105;29;97408;-57
2024/03/05 02:19:03;;;;;;;;;47.00;36.60;;;;;13.87;100.00;97990.88;5990504;29;96450;-57
2024/03/05 02:22:07;;;;;;;;;45.00;35.40;;;;;13.91;100.00;97996.56;5973022;29;96436;-58
2024/03/05 02:25:11;;;;;;;;;46.80;38.00;;;;;13.85;100.00;97980.28;5972873;29;96400;-59
2024/03/05 02:28:17;;;;;;;;;45.40;36.40;;;;;13.88;100.00;97990.59;5956967;29;96506;-57
2024/03/05 02:31:21;;;;;;;;;48.40;38.00;;;;;13.89;100.00;97988.69;5972890;29;96351;-57
2024/03/05 02:34:25;;;;;;;;;46.60;35.00;;;;;13.84;100.00;97996.81;5972881;29;96853;-57
2024/03/05 02:37:30;;;;;;;;;49.60;38.80;;;;;13.82;100.00;97994.38;5973217;29;96322;-57
2024/03/05 02:40:34;;;;;;;;;47.00;37.00;;;;;13.65;100.00;97976.66;5956818;29;96872;-58
2024/03/05 02:43:37;;;;;;;;;48.80;38.60;;;;;13.73;100.00;97993.22;5956233;29;97736;-58
2024/03/05 02:46:41;;;;;;;;;46.80;36.80;;;;;13.73;100.00;97993.22;5972980;29;96423;-58
2024/03/05 02:49:44;;;;;;;;;49.00;39.00;;;;;13.62;100.00;97986.16;5972672;29;97718;-58
2024/03/05 02:52:48;;;;;;;;;52.50;38.75;;;;;13.34;100.00;97973.78;5972620;29;96693;-58
2024/03/05 02:55:52;;;;;;;;;43.20;35.20;;;;;13.22;100.00;98000.25;5974254;29;96340;-58
2024/03/05 02:58:55;;;;;;;;;48.80;38.20;;;;;13.24;100.00;98003.50;5944390;29;99648;-57
2024/03/05 03:01:59;;;;;;;;;47.00;36.00;;;;;13.26;100.00;98006.78;5960184;29;97666;-57
2024/03/05 03:05:02;;;;;;;;;45.00;36.00;;;;;13.24;100.00;98005.41;5976015;29;96355;-58
2024/03/05 03:08:07;;;;;;;;;47.40;37.20;;;;;13.25;100.00;98004.31;5976433;29;97934;-57
2024/03/05 03:11:15;;;;;;;;;49.60;39.00;;;;;13.29;100.00;98010.88;5959953;29;98866;-58
2024/03/05 03:14:19;;;;;;;;;46.00;36.50;;;;;13.30;100.00;97997.06;5960025;29;99344;-57
2024/03/05 03:17:22;;;;;;;;;45.00;36.00;;;;;13.35;100.00;98015.22;5947573;29;96881;-54
2024/03/05 03:20:25;;;;;;;;;45.60;36.40;;;;;13.40;100.00;98012.53;5998631;29;96327;-54
2024/03/05 03:23:30;;;;;;;;;47.40;38.00;;;;;13.40;100.00;98002.53;5982197;29;96964;-53
2024/03/05 03:26:34;;;;;;;;;49.80;39.80;;;;;13.53;100.00;98022.13;5984369;29;96938;-54
2024/03/05 03:29:40;;;;;;;;;46.60;38.20;;;;;13.44;100.00;98011.75;5983637;29;96928;-54
2024/03/05 03:32:43;;;;;;;;;48.80;38.00;;;;;13.55;100.00;98017.25;5966289;29;98448;-55
2024/03/05 03:35:47;;;;;;;;;46.50;38.00;;;;;13.57;100.00;98024.03;5966204;29;96392;-55
2024/03/05 03:38:52;;;;;;;;;50.00;39.00;;;;;13.60;100.00;98022.69;5966975;29;98392;-54
2024/03/05 03:41:55;;;;;;;;;50.00;38.00;;;;;13.63;100.00;98027.59;5984201;29;96429;-56
2024/03/05 03:44:58;;;;;;;;;46.00;38.00;;;;;13.65;100.00;98030.84;5968384;29;98646;-54
2024/03/05 03:48:02;;;;;;;;;48.67;37.67;;;;;13.62;100.00;98031.38;5969685;29;98524;-54
2024/03/05 03:51:06;;;;;;;;;51.60;40.00;;;;;13.58;100.00;98038.41;5967852;29;99179;-54
2024/03/05 03:54:13;;;;;;;;;49.00;38.60;;;;;13.68;100.00;98046.59;5983834;29;96621;-54
2024/03/05 03:57:16;;;;;;;;;49.00;38.75;;;;;13.65;100.00;98042.50;5967644;29;98571;-55
2024/03/05 04:00:21;;;;;;;;;49.00;39.00;;;;;13.63;100.00;98050.09;5984180;29;96549;-54
2024/03/05 04:03:24;;;;;;;;;49.40;38.00;;;;;13.63;100.00;98058.22;5982570;29;96815;-54
2024/03/05 04:06:28;;;;;;;;;47.00;39.00;;;;;13.62;100.00;98063.88;5950159;29;97046;-55
2024/03/05 04:09:33;;;;;;;;;49.00;36.00;;;;;13.63;100.00;98055.50;5964642;29;96807;-54
2024/03/05 04:12:36;;;;;;;;;41.00;33.00;;;;;13.52;100.00;98045.66;5984740;29;96398;-55
2024/03/05 04:15:39;;;;;;;;;43.00;33.40;;;;;13.50;100.00;98052.41;5987365;29;97056;-54
2024/03/05 04:18:45;;;;;;;;;32.80;28.60;;;;;13.45;100.00;98050.47;5951184;29;96527;-54
2024/03/05 04:21:48;;;;;;;;;33.20;30.00;;;;;13.44;100.00;98056.97;5975274;29;96329;-55
2024/03/05 04:24:55;;;;;;;;;33.00;28.00;;;;;13.37;100.00;98054.50;5988709;29;97045;-55
2024/03/05 04:31:43;;;;;;;;;33.00;27.50;;;;;13.31;100.00;98052.81;6199290;23;98236;-57
2024/03/05 04:35:00;;;;;;;;;30.00;26.20;;;;;13.27;100.00;98061.72;6004167;28;96372;-57
2024/03/05 04:38:06;;;;;;;;;33.00;26.00;;;;;13.25;100.00;98070.09;6005507;28;97112;-59
2024/03/05 04:41:13;;;;;;;;;31.20;28.00;;;;;13.23;100.00;98072.25;6004943;28;96527;-58
2024/03/05 04:44:19;;;;;;;;;40.50;29.50;;;;;13.19;100.00;98076.56;5989631;28;96812;-58
2024/03/05 04:47:24;;;;;;;;;39.20;30.80;;;;;13.18;100.00;98074.94;6416612;23;99080;-56
2024/03/05 04:50:28;;;;;;;;;31.20;28.00;;;;;13.18;100.00;98077.63;5972672;29;97098;-55
2024/03/05 04:53:31;;;;;;;;;32.40;27.00;;;;;13.12;100.00;98067.00;6118262;23;98568;-56
2024/03/05 04:56:36;;;;;;;;;33.40;27.40;;;;;13.10;100.00;98071.81;6000883;29;96273;-56
2024/03/05 04:59:40;;;;;;;;;34.00;27.75;;;;;13.11;100.00;98078.88;6054433;23;97425;-56
2024/03/05 05:02:43;;;;;;;;;31.60;28.00;;;;;13.10;100.00;98088.06;6009849;28;97154;-57
2024/03/05 05:05:47;;;;;;;;;31.80;27.60;;;;;13.08;100.00;98082.09;6008020;28;96304;-57
2024/03/05 05:08:50;;;;;;;;;32.00;27.00;;;;;12.98;100.00;98099.06;6027231;28;96373;-57
2024/03/05 05:11:54;;;;;;;;;34.75;29.75;;;;;12.88;100.00;98091.66;6018292;23;97580;-57
2024/03/05 05:14:59;;;;;;;;;16.00;11.40;;;;;12.88;100.00;98099.78;6147623;23;98779;-57
2024/03/05 05:18:04;;;;;;;;;30.20;25.00;;;;;12.87;100.00;98106.25;6028984;28;96372;-59
2024/03/05 05:21:08;;;;;;;;;24.20;22.80;;;;;12.87;100.00;98106.25;6015426;28;97590;-56
2024/03/05 05:24:11;;;;;;;;;32.00;26.00;;;;;12.84;100.00;98112.19;6032720;28;97190;-56
2024/03/05 05:27:16;;;;;;;;;28.60;26.00;;;;;12.81;100.00;98109.97;6026614;28;97242;-56
2024/03/05 05:30:20;;;;;;;;;27.20;23.40;;;;;12.79;100.00;98112.13;6029079;28;96911;-55
2024/03/05 05:33:25;;;;;;;;;29.00;24.60;;;;;12.78;100.00;98110.50;6028044;28;96643;-56
2024/03/05 05:36:28;;;;;;;;;27.20;22.20;;;;;12.78;100.00;98121.31;6019379;28;96332;-58
2024/03/05 05:39:32;;;;;;;;;29.60;24.60;;;;;12.78;100.00;98120.50;5998996;29;96318;-58
2024/03/05 05:42:37;;;;;;;;;23.00;20.25;;;;;12.79;100.00;98120.25;6004635;29;96801;-57
2024/03/05 05:45:40;;;;;;;;;27.00;22.40;;;;;12.76;100.00;98119.91;5975528;29;96897;-58
2024/03/05 05:48:48;;;;;;;;;25.80;20.20;;;;;12.76;100.00;98123.44;5996603;29;96370;-57
2024/03/05 05:51:52;;;;;;;;;25.00;22.60;;;;;12.78;100.00;98120.50;6000363;29;96282;-57
2024/03/05 05:54:56;;;;;;;;;26.75;23.00;;;;;12.78;100.00;98129.44;6003667;29;96380;-57
2024/03/05 05:58:04;;;;;;;;;23.25;21.75;;;;;12.73;100.00;98131.25;5996601;29;96349;-57
2024/03/05 06:01:09;;;;;;;;;28.40;25.00;;;;;12.73;100.00;98140.19;5979119;29;98449;-58
2024/03/05 06:04:15;;;;;;;;;28.20;22.00;;;;;12.77;100.00;98137.78;5996819;29;96401;-58
2024/03/05 06:07:19;;;;;;;;;24.60;21.00;;;;;12.79;100.00;98157.28;5978335;29;96636;-58
2024/03/05 06:10:23;;;;;;;;;23.00;19.80;;;;;12.70;100.00;98138.00;5991983;29;96606;-58
2024/03/05 06:13:27;;;;;;;;;25.60;21.60;;;;;12.83;100.00;98164.66;5995299;29;96425;-58
2024/03/05 06:16:32;;;;;;;;;23.00;22.00;;;;;12.81;100.00;98166.78;5995245;29;96462;-58
2024/03/05 06:19:37;;;;;;;;;26.50;22.50;;;;;12.79;100.00;98176.22;5995953;29;96346;-57
2024/03/05 06:22:41;;;;;;;;;27.00;22.00;;;;;12.75;100.00;98177.81;5996152;29;96316;-57
2024/03/05 06:25:46;;;;;;;;;23.00;20.00;;;;;12.75;100.00;98181.34;6005010;29;96749;-58
2024/03/05 06:28:50;;;;;;;;;20.60;18.60;;;;;12.73;100.00;98186.16;5995946;29;96976;-57
2024/03/05 06:31:55;;;;;;;;;21.00;17.40;;;;;12.71;100.00;98192.88;6017407;29;96526;-58
2024/03/05 06:34:59;;;;;;;;;18.60;16.00;;;;;12.62;100.00;98184.41;6023622;29;96239;-57
2024/03/05 06:38:03;;;;;;;;;16.60;14.00;;;;;12.55;100.00;98192.72;6014583;29;96281;-57
2024/03/05 06:41:06;;;;;;;;;18.75;15.00;;;;;12.51;100.00;98183.44;6020302;29;98406;-57
2024/03/05 06:44:11;;;;;;;;;16.00;14.00;;;;;12.59;100.00;98196.56;6008936;29;97061;-57
2024/03/05 06:47:16;;;;;;;;;15.00;15.00;;;;;12.66;100.00;98200.97;5985203;29;96582;-53
2024/03/05 06:50:22;;;;;;;;;13.00;11.40;;;;;12.68;100.00;98193.41;6005319;29;96389;-53
2024/03/05 06:56:46;;;;;;;;;13.00;12.33;;;;;12.65;100.00;98210.97;6005411;29;96414;-53
2024/03/05 06:59:50;;;;;;;;;13.75;13.75;;;;;12.65;100.00;98215.53;6004896;29;96290;-54
2024/03/05 07:02:53;;;;;;;;;12.25;12.25;;;;;12.64;100.00;98208.50;6026160;29;96677;-53
2024/03/05 07:05:57;;;;;;;;;14.75;13.00;;;;;12.68;100.00;98215.84;6028678;29;96555;-53
2024/03/05 07:09:00;;;;;;;;;14.00;14.00;;;;;12.76;100.00;98234.34;6011677;29;96435;-53
2024/03/05 07:12:07;;;;;;;;;15.00;12.00;;;;;12.75;100.00;98237.31;6012478;29;99378;-54
2024/03/05 07:15:14;;;;;;;;;12.00;11.00;;;;;12.78;100.00;98243.03;6011877;29;96428;-54
2024/03/05 07:18:18;;;;;;;;;14.00;13.00;;;;;12.84;100.00;98247.44;6029712;29;96417;-55
2024/03/05 07:21:23;;;;;;;;;13.00;12.00;;;;;12.85;100.00;98248.25;5995333;29;98733;-53
2024/03/05 07:24:28;;;;;;;;;14.25;11.00;;;;;12.89;100.00;98254.78;6011438;29;96815;-54
2024/03/05 07:27:31;;;;;;;;;13.00;11.00;;;;;12.86;100.00;98261.50;6014178;29;96749;-53
2024/03/05 07:30:37;;;;;;;;;12.40;11.00;;;;;12.77;100.00;98254.91;6004714;29;96468;-54
2024/03/05 07:33:40;;;;;;;;;11.00;11.00;;;;;12.87;100.00;98268.56;6004957;29;96272;-54
2024/03/05 07:36:44;;;;;;;;;11.00;10.00;;;;;12.88;100.00;98262.09;6005380;29;96374;-53
2024/03/05 07:39:47;;;;;;;;;13.75;12.25;;;;;12.89;100.00;98266.44;6005641;29;96702;-54
2024/03/05 07:42:53;;;;;;;;;12.40;10.00;;;;;12.87;100.00;98259.63;6003887;29;96271;-54
2024/03/05 07:45:57;;;;;;;;;13.00;12.50;;;;;12.89;100.00;98268.31;6005320;29;96603;-54
2024/03/05 07:49:00;;;;;;;;;13.00;13.00;;;;;12.81;100.00;98264.16;6004788;29;96312;-54
2024/03/05 07:52:04;;;;;;;;;14.00;12.50;;;;;12.71;100.00;98269.44;6005048;29;96391;-54
2024/03/05 07:55:09;;;;;;;;;13.00;12.00;;;;;12.72;100.00;98275.66;6004953;29;96626;-53
2024/03/05 07:58:13;;;;;;;;;13.20;13.00;;;;;12.73;100.00;98280.81;6001288;29;96370;-57
2024/03/05 08:01:18;;;;;;;;;12.00;12.00;;;;;12.71;100.00;98282.13;5998634;29;96533;-57
2024/03/05 08:04:21;;;;;;;;;12.00;12.00;;;;;12.71;100.00;98287.53;5981786;29;98389;-56
2024/03/05 08:07:24;;;;;;;;;14.50;12.50;;;;;12.75;100.00;98291.41;5998636;29;96509;-56
2024/03/05 08:10:27;;;;;;;;;14.00;12.00;;;;;12.77;100.00;98291.94;5981791;29;96468;-56
2024/03/05 08:13:33;;;;;;;;;13.00;12.00;;;;;12.87;100.00;98295.63;6006430;29;96529;-57
2024/03/05 08:16:38;;;;;;;;;12.00;11.00;;;;;12.89;100.00;98293.50;5997131;29;96431;-57
2024/03/05 08:19:42;;;;;;;;;12.60;11.00;;;;;12.99;100.00;98300.91;5995876;29;96415;-58
2024/03/05 08:22:46;;;;;;;;;14.80;12.80;;;;;13.01;100.00;98304.19;5997220;29;96489;-57
2024/03/05 08:25:49;;;;;;;;;11.50;11.00;;;;;13.10;100.00;98309.97;5997146;29;96832;-57
2024/03/05 08:28:53;;;;;;;;;12.40;11.00;;;;;13.16;100.00;98309.81;5997111;29;97264;-56
2024/03/05 08:31:57;;;;;;;;;13.00;12.80;;;;;13.23;100.00;98315.03;5997242;29;96755;-58
2024/03/05 08:35:01;;;;;;;;;12.75;11.75;;;;;13.23;100.00;98315.03;5997181;29;96892;-58
2024/03/05 08:38:04;;;;;;;;;12.00;11.00;;;;;13.23;100.00;98315.88;5997191;29;96358;-58
2024/03/05 08:41:07;;;;;;;;;13.00;12.00;;;;;13.18;100.00;98321.22;5995166;29;96376;-58
2024/03/05 08:44:11;;;;;;;;;13.00;12.00;;;;;13.18;100.00;98323.94;5996975;29;96364;-58
2024/03/05 08:47:15;;;;;;;;;15.80;13.80;;;;;13.07;100.00;98305.88;5997437;29;97606;-58
2024/03/05 08:50:19;;;;;;;;;12.40;12.00;;;;;13.26;100.00;98337.00;6000355;29;97036;-58
2024/03/05 08:53:23;;;;;;;;;10.25;9.25;;;;;13.27;100.00;98338.66;6019758;29;96929;-58
2024/03/05 08:56:26;;;;;;;;;12.00;11.00;;;;;13.31;100.00;98339.78;6021287;29;98176;-58
2024/03/05 08:59:29;;;;;;;;;9.00;8.00;;;;;13.35;100.00;98338.19;6021352;29;96562;-58
2024/03/05 09:02:34;;;;;;;;;10.80;9.80;;;;;13.36;100.00;98339.00;6021362;29;96866;-58
2024/03/05 09:05:37;;;;;;;;;10.00;9.00;;;;;13.38;100.00;98355.84;6020382;29;96416;-58
2024/03/05 09:08:41;;;;;;;;;9.60;9.00;;;;;13.40;100.00;98353.69;6039864;28;96423;-59
2024/03/05 09:11:45;;;;;;;;;12.00;10.00;;;;;13.43;100.00;98361.31;6052420;28;96854;-58
2024/03/05 09:14:48;;;;;;;;;11.00;9.00;;;;;13.49;100.00;98367.63;6028641;28;96932;-56
2024/03/05 09:17:53;;;;;;;;;11.00;9.40;;;;;13.49;100.00;98363.00;6028978;28;96359;-57
2024/03/05 09:20:56;;;;;;;;;9.75;9.00;;;;;13.48;100.00;98366.78;6028449;28;96407;-57
2024/03/05 09:23:59;;;;;;;;;10.00;9.00;;;;;13.46;100.00;98368.91;6031550;28;96265;-57
2024/03/05 09:27:03;;;;;;;;;8.00;8.00;;;;;13.47;100.00;98372.44;6052035;28;96989;-57
2024/03/05 09:30:08;;;;;;;;;9.00;9.00;;;;;13.40;100.00;98376.16;6051896;28;96695;-57
2024/03/05 09:33:12;;;;;;;;;9.50;9.00;;;;;13.44;100.00;98373.75;6051664;28;96420;-59
2024/03/05 09:36:18;;;;;;;;;12.00;11.00;;;;;13.40;100.00;98378.03;6051657;28;96702;-58
2024/03/05 09:39:21;;;;;;;;;14.80;12.00;;;;;13.37;100.00;98376.69;6051750;28;96358;-59
2024/03/05 09:42:27;;;;;;;;;10.75;10.75;;;;;13.33;100.00;98386.38;6032095;23;97814;-88
2024/03/05 09:45:36;;;;;;;;;12.00;12.00;;;;;12.64;100.00;98322.06;5965270;29;96428;-89
2024/03/05 09:48:42;;;;;;;;;11.00;10.50;;;;;13.22;100.00;98381.06;5980901;29;96407;-89
2024/03/05 09:51:47;;;;;;;;;12.00;10.50;;;;;12.91;100.00;98331.09;5965386;29;96608;-89
2024/03/05 09:54:50;;;;;;;;;12.00;11.00;;;;;12.17;100.00;98219.72;5980457;29;97026;-89
2024/03/05 09:57:55;;;;;;;;;13.00;11.40;;;;;13.39;100.00;98404.31;5965553;29;96527;-89
2024/03/05 10:01:00;;;;;;;;;9.00;8.00;;;;;12.99;100.00;98347.75;5980583;29;96907;-89
2024/03/05 10:04:06;;;;;;;;;11.00;10.00;;;;;12.00;100.00;98219.78;5965496;29;96443;-87
2024/03/05 10:07:09;;;;;;;;;11.60;10.00;;;;;13.23;100.00;98407.91;5965131;29;97649;-88
2024/03/05 10:10:14;;;;;;;;;12.00;11.00;;;;;13.33;100.00;98404.50;5966334;29;96289;-89
2024/03/05 10:13:18;;;;;;;;;12.20;10.60;;;;;13.45;100.00;98446.63;5981079;29;96387;-89
2024/03/05 10:16:23;;;;;;;;;11.00;10.00;;;;;13.46;100.00;98420.38;6063236;23;98814;-57
2024/03/05 10:19:28;;;;;;;;;12.00;10.60;;;;;13.43;100.00;98424.41;5957152;29;96405;-54
2024/03/05 10:22:31;;;;;;;;;10.00;10.00;;;;;13.47;100.00;98419.31;5957179;29;96437;-53
2024/03/05 10:25:35;;;;;;;;;10.40;10.40;;;;;13.54;100.00;98417.22;5957678;29;96385;-53
2024/03/05 10:28:40;;;;;;;;;12.40;11.00;;;;;13.58;100.00;98421.06;5958372;29;96386;-53
2024/03/05 10:31:44;;;;;;;;;14.00;12.00;;;;;13.66;100.00;98422.50;5957859;29;96989;-53
2024/03/05 10:34:49;;;;;;;;;12.80;11.00;;;;;13.68;100.00;98420.38;5957545;29;96433;-53
2024/03/05 10:37:57;;;;;;;;;14.00;12.25;;;;;13.64;100.00;98417.34;5958015;29;96811;-53
2024/03/05 10:41:01;;;;;;;;;16.25;15.00;;;;;13.55;100.00;98415.31;5957769;29;96425;-54
2024/03/05 10:44:07;;;;;;;;;16.00;15.00;;;;;13.44;100.00;98401.66;5957254;29;96547;-53
2024/03/05 10:47:12;;;;;;;;;18.00;15.40;;;;;13.51;100.00;98411.50;5957982;29;96478;-54
2024/03/05 10:50:19;;;;;;;;;15.00;14.00;;;;;13.44;100.00;98411.66;5957304;29;96870;-54
2024/03/05 10:53:22;;;;;;;;;18.25;16.25;;;;;13.38;100.00;98410.81;5955603;29;96353;-54
2024/03/05 10:56:25;;;;;;;;;18.00;16.00;;;;;13.45;100.00;98426.84;5957320;29;96405;-54
2024/03/05 10:59:41;;;;;;;;;17.40;15.40;;;;;13.44;100.00;98425.19;5956335;29;96410;-54
2024/03/05 11:02:44;;;;;;;;;19.40;16.80;;;;;13.45;100.00;98424.97;5955937;29;96932;-55
2024/03/05 11:05:51;;;;;;;;;18.00;16.60;;;;;13.40;100.00;98424.06;5955833;29;96737;-55
2024/03/05 11:08:56;;;;;;;;;17.75;15.00;;;;;13.35;100.00;98432.13;5956443;29;96435;-54
2024/03/05 11:12:08;;;;;;;;;20.40;20.00;;;;;13.28;100.00;98421.50;5954955;29;96929;-55
2024/03/05 11:15:13;;;;;;;;;20.50;18.50;;;;;13.37;100.00;98425.41;5955264;29;96409;-54
2024/03/05 11:18:28;;;;;;;;;22.00;20.00;;;;;13.40;100.00;98434.91;5959711;29;96412;-54
2024/03/05 11:21:36;;;;;;;;;23.80;22.40;;;;;13.43;100.00;98443.38;5960386;29;96538;-54
2024/03/05 11:24:41;;;;;;;;;24.00;22.00;;;;;13.45;100.00;98430.38;5960999;29;96350;-54
2024/03/05 11:27:48;;;;;;;;;22.60;21.00;;;;;13.54;100.00;98430.75;5957617;29;96387;-57
2024/03/05 11:31:09;;;;;;;;;26.00;23.25;;;;;13.72;100.00;98430.47;5953200;29;96551;-57
2024/03/05 11:34:13;;;;;;;;;28.00;24.00;;;;;13.88;100.00;98434.13;5953062;29;97025;-58
2024/03/05 11:37:18;;;;;;;;;23.20;20.20;;;;;14.00;100.00;98434.00;5952779;29;96319;-58
2024/03/05 11:40:31;;;;;;;;;26.00;24.00;;;;;14.06;100.00;98431.09;5951500;29;96445;-58
2024/03/05 11:43:35;;;;;;;;;21.00;19.00;;;;;14.08;100.00;98433.53;5953052;29;96248;-58
2024/03/05 11:46:44;;;;;;;;;28.00;25.00;;;;;14.10;100.00;98431.41;5959194;29;96600;-58
2024/03/05 11:49:47;;;;;;;;;26.80;24.00;;;;;14.05;100.00;98443.00;5966167;29;96852;-58
2024/03/05 11:52:53;;;;;;;;;26.00;23.00;;;;;13.99;100.00;98443.19;5974130;29;99144;-58
2024/03/05 11:56:08;;;;;;;;;27.00;23.00;;;;;13.86;100.00;98439.84;5975708;29;96342;-58
2024/03/05 11:59:12;;;;;;;;;28.00;26.00;;;;;13.78;100.00;98442.97;5974929;29;96486;-58
2024/03/05 12:02:15;;;;;;;;;24.00;21.20;;;;;13.72;100.00;98444.00;5961914;29;96548;-58
2024/03/05 12:05:19;;;;;;;;;27.00;23.00;;;;;13.66;100.00;98441.47;5960306;29;97292;-58
2024/03/05 12:08:24;;;;;;;;;25.00;23.00;;;;;13.60;100.00;98446.00;5951427;29;96351;-58
2024/03/05 12:11:28;;;;;;;;;28.50;25.00;;;;;13.56;100.00;98444.88;5952642;29;96506;-58
2024/03/05 12:14:32;;;;;;;;;28.20;25.00;;;;;13.57;100.00;98438.41;5952009;29;96327;-57
2024/03/05 12:17:36;;;;;;;;;29.75;25.75;;;;;13.63;100.00;98437.41;5952721;29;96902;-57
2024/03/05 12:20:40;;;;;;;;;25.00;23.00;;;;;13.66;100.00;98447.72;5951755;29;96444;-58
2024/03/05 12:23:45;;;;;;;;;26.80;24.00;;;;;13.70;100.00;98451.56;5952615;29;96660;-58
2024/03/05 12:26:48;;;;;;;;;27.00;24.40;;;;;13.77;100.00;98454.09;5938720;29;96384;-58
2024/03/05 12:29:52;;;;;;;;;26.60;24.00;;;;;13.85;100.00;98454.44;5942728;29;97734;-58
2024/03/05 12:32:56;;;;;;;;;28.75;25.00;;;;;13.92;100.00;98453.44;5940894;29;97647;-59
2024/03/05 12:35:59;;;;;;;;;26.00;24.00;;;;;14.02;100.00;98459.78;5929981;29;97208;-57
2024/03/05 12:39:07;;;;;;;;;28.80;24.00;;;;;13.99;100.00;98429.66;5952317;29;96315;-58
2024/03/05 12:42:13;;;;;;;;;26.60;24.40;;;;;14.19;100.00;98460.50;5965982;29;96351;-58
2024/03/05 12:45:18;;;;;;;;;31.00;28.00;;;;;14.23;100.00;98460.81;5952908;29;96832;-58
2024/03/05 12:48:26;;;;;;;;;29.50;26.00;;;;;14.24;100.00;98463.28;5951814;29;96427;-57
2024/03/05 12:51:30;;;;;;;;;29.60;24.60;;;;;14.26;100.00;98463.03;5937724;29;96488;-58
2024/03/05 12:54:36;;;;;;;;;29.25;26.25;;;;;14.29;100.00;98459.78;5940300;29;96442;-58
2024/03/05 12:57:39;;;;;;;;;30.00;26.00;;;;;14.30;100.00;98459.56;5941305;29;96353;-58
2024/03/05 13:00:45;;;;;;;;;30.40;27.80;;;;;14.39;100.00;98454.50;5930610;29;96481;-59
2024/03/05 13:03:49;;;;;;;;;29.00;25.00;;;;;14.52;100.00;98461.41;5944288;29;97246;-58
2024/03/05 13:06:52;;;;;;;;;31.60;25.00;;;;;14.58;100.00;98453.06;5944980;29;97113;-58
2024/03/05 13:09:59;;;;;;;;;28.00;26.00;;;;;14.65;100.00;98444.72;5950644;29;96344;-59
2024/03/05 13:13:03;;;;;;;;;28.00;26.00;;;;;14.83;100.00;98465.19;5940452;29;96401;-58
2024/03/05 13:16:07;;;;;;;;;29.75;26.00;;;;;14.81;100.00;98460.03;5934043;29;96304;-57
2024/03/05 13:19:12;;;;;;;;;31.00;28.00;;;;;14.78;100.00;98460.56;5937954;29;96939;-57
2024/03/05 13:22:15;;;;;;;;;29.20;26.20;;;;;14.69;100.00;98462.94;5942188;29;98172;-57
2024/03/05 13:25:21;;;;;;;;;35.40;31.00;;;;;14.71;100.00;98465.38;5945160;29;97733;-58
2024/03/05 13:28:27;;;;;;;;;31.40;29.40;;;;;14.68;100.00;98480.28;5946382;29;97142;-58
2024/03/05 13:31:31;;;;;;;;;33.00;29.25;;;;;14.71;100.00;98470.78;5931440;29;98959;-58
2024/03/05 13:34:34;;;;;;;;;31.60;28.00;;;;;14.66;100.00;98468.84;5944823;29;96722;-58
2024/03/05 13:37:37;;;;;;;;;30.00;26.00;;;;;14.65;100.00;98479.97;5946472;29;96431;-58
2024/03/05 13:40:42;;;;;;;;;29.80;27.00;;;;;14.66;100.00;98482.41;5950547;29;96410;-58
2024/03/05 13:43:45;;;;;;;;;30.40;28.00;;;;;14.64;100.00;98478.34;5949786;29;96636;-57
2024/03/05 13:46:51;;;;;;;;;25.60;24.60;;;;;14.60;100.00;98482.66;5949011;29;97149;-58
2024/03/05 13:49:56;;;;;;;;;28.00;26.20;;;;;14.58;100.00;98485.63;5951056;29;98291;-54
2024/03/05 13:52:59;;;;;;;;;30.20;27.80;;;;;14.47;100.00;98500.13;5954392;29;96951;-54
2024/03/05 13:56:05;;;;;;;;;31.50;26.50;;;;;14.44;100.00;98497.13;5949310;29;96365;-54
2024/03/05 13:59:09;;;;;;;;;29.60;24.00;;;;;14.23;100.00;98472.47;5951693;29;96472;-54
2024/03/05 14:02:13;;;;;;;;;30.50;26.00;;;;;14.37;100.00;98505.47;5957963;29;96507;-56
2024/03/05 14:05:17;;;;;;;;;32.00;26.00;;;;;14.35;100.00;98509.47;5952316;29;96389;-53